Saint Louis, MO

8:09 PM CDT on July 29, 2016 (GMT -0500)
Grand / Lindell | | Change Station

Elev 656 ft 38.64 °N, 90.23 °W | Updated 27 seconds ago

Mostly Cloudy
Mostly Cloudy
76.3 °F
Feels Like 78 °F
N
1.3
Wind Variable Wind from North
Gusts 2.5 mph

Today
High -- | Low -- °F
--% Chance of Precip.
Yesterday
High -- | Low -- °F
Precip. -- in
Pressure 29.89 in
Visibility 10.0 miles
Clouds Scattered Clouds 4000 ft
Mostly Cloudy 25000 ft
Heat Index 78 °F
Dew Point 69 °F
Humidity 78%
Rainfall 0.63 in
Snow Depth Not available.
6:00 AM 8:13 PM
Waning Crescent, 17% visible
METAR KSTL 300051Z 34007KT 10SM SCT040 BKN250 28/19 A2992 RMK AO2 SLP120 T02780189
Pressure 29.89 in
Visibility 10.0 miles
Clouds Scattered Clouds 4000 ft
Mostly Cloudy 25000 ft
Heat Index 78 °F
Dew Point 69 °F
Humidity 78%
Rainfall 0.63 in
Snow Depth Not available.
6:00 AM 8:13 PM
Waning Crescent, 17% visible
METAR KSTL 300051Z 34007KT 10SM SCT040 BKN250 28/19 A2992 RMK AO2 SLP120 T02780189

10-Day Weather Forecast

Almanac

Astronomy

Jul. 29, 2016 Rise Set
Actual Time
Civil Twilight
Nautical Twilight
Astronomical Twilight
Moon
Length of Visible Light
Length of Day
Tomorrow will be .
, % of the Moon is Illuminated

Today's Extremes

State Highs State Lows

Community

WunderPhotos

Upload Photos

1,928,463 photos uploaded!

WunderBlog® & News

Nearby

Air Quality

  Air Quality AQ Index Pollutant
Not available.

Snow Depth

Station Depth Elevation

Earthquake Activity

City Distance Mag. Time & Date
Minimum magnitude displayed is 2.5.

Coastal Water Temperatures

Place Temperature

Stations

Nearby Weather Stations

Station Location Temp. Windchill Dew Point Humidity Wind Precip. Elev Updated Type
                   

Watches & Warnings

There are currently no watches in effect.